createdAt,value
2022-12-03T00:00:57.717Z,12.13
2022-12-03T00:03:43.551Z,12.23
2022-12-03T00:06:34.312Z,12.55
2022-12-03T00:09:20.714Z,12.48
2022-12-03T00:12:07.362Z,12.27
2022-12-03T00:14:54.288Z,12.90
2022-12-03T00:17:41.244Z,12.80
2022-12-03T00:20:27.748Z,12.05
2022-12-03T00:23:14.469Z,12.80
2022-12-03T00:26:00.803Z,13.75
2022-12-03T00:28:47.578Z,13.30
2022-12-03T00:31:34.756Z,12.95
2022-12-03T00:34:22.921Z,12.38
2022-12-03T00:37:09.954Z,11.60
2022-12-03T00:39:57.014Z,12.43
2022-12-03T00:42:43.437Z,12.98
2022-12-03T00:45:30.459Z,12.55
2022-12-03T00:48:16.091Z,12.52
2022-12-03T00:51:01.560Z,11.98
2022-12-03T00:53:46.934Z,12.13
2022-12-03T00:56:32.270Z,12.05
2022-12-03T00:59:17.533Z,11.70
2022-12-03T01:02:03.091Z,13.52
2022-12-03T01:04:48.401Z,12.60
2022-12-03T01:07:33.747Z,11.98
2022-12-03T01:10:23.070Z,11.75
2022-12-03T01:13:08.128Z,13.27
2022-12-03T01:15:53.482Z,13.90
2022-12-03T01:18:38.877Z,12.73
2022-12-03T01:21:24.289Z,13.82
2022-12-03T01:24:10.476Z,12.65
2022-12-03T01:26:56.629Z,12.70
2022-12-03T01:29:41.903Z,12.50
2022-12-03T01:32:27.412Z,12.30
2022-12-03T01:35:12.763Z,13.13
2022-12-03T01:37:58.080Z,12.52
2022-12-03T01:40:43.374Z,11.52
2022-12-03T01:43:28.959Z,12.52
2022-12-03T01:46:19.780Z,11.98
2022-12-03T01:49:05.523Z,12.63
2022-12-03T01:51:52.863Z,11.45
2022-12-03T01:54:42.194Z,12.75
2022-12-03T01:57:32.135Z,11.85
2022-12-03T02:00:23.148Z,11.30
2022-12-03T02:03:16.344Z,11.82
2022-12-03T02:06:01.501Z,11.73
2022-12-03T02:08:48.650Z,12.52
2022-12-03T02:11:36.839Z,12.18
2022-12-03T02:14:22.281Z,11.35
2022-12-03T02:17:07.526Z,10.93
2022-12-03T02:19:53.970Z,12.82
2022-12-03T02:22:59.174Z,11.95
2022-12-03T02:25:44.193Z,12.50
2022-12-03T02:28:29.601Z,12.30
2022-12-03T02:31:15.202Z,13.35
2022-12-03T02:34:06.367Z,12.27
2022-12-03T02:36:51.732Z,11.98
2022-12-03T02:39:40.548Z,11.70
2022-12-03T02:42:34.921Z,12.52
2022-12-03T02:45:27.601Z,12.60
2022-12-03T02:48:33.038Z,12.75
2022-12-03T02:51:18.150Z,12.82
2022-12-03T02:54:03.875Z,14.32
2022-12-03T02:56:49.575Z,12.38
2022-12-03T02:59:34.964Z,11.93
2022-12-03T03:02:21.594Z,12.27
2022-12-03T03:05:09.526Z,11.93
2022-12-03T03:07:58.244Z,12.80
2022-12-03T03:10:44.556Z,12.07
2022-12-03T03:13:31.805Z,11.65
2022-12-03T03:16:17.294Z,11.50
2022-12-03T03:19:02.779Z,11.00
2022-12-03T03:21:48.109Z,12.20
2022-12-03T03:24:33.444Z,12.25
2022-12-03T03:27:18.865Z,11.48
2022-12-03T03:30:04.862Z,12.02
2022-12-03T03:32:50.347Z,12.30
2022-12-03T03:35:36.797Z,12.80
2022-12-03T03:38:23.493Z,11.88
2022-12-03T03:41:10.596Z,11.75
2022-12-03T03:43:56.653Z,13.07
2022-12-03T03:46:42.992Z,12.32
2022-12-03T03:49:28.702Z,11.43
2022-12-03T03:52:14.133Z,11.65
2022-12-03T03:54:59.530Z,11.30
2022-12-03T03:57:45.070Z,12.40
2022-12-03T04:00:30.955Z,13.15
2022-12-03T04:03:16.337Z,12.02
2022-12-03T04:06:02.057Z,11.82
2022-12-03T04:08:47.214Z,11.65
2022-12-03T04:11:51.093Z,11.90
2022-12-03T04:14:36.302Z,11.73
2022-12-03T04:17:21.759Z,13.10
2022-12-03T04:20:07.314Z,11.82
2022-12-03T04:22:52.594Z,11.77
2022-12-03T04:25:56.652Z,11.52
2022-12-03T04:28:50.838Z,12.75
2022-12-03T04:31:54.474Z,10.88
2022-12-03T04:34:58.210Z,11.13
2022-12-03T04:37:43.517Z,10.68
2022-12-03T04:40:47.351Z,12.55
2022-12-03T04:43:34.468Z,10.77
2022-12-03T04:46:19.727Z,10.95
2022-12-03T04:49:05.064Z,11.45
2022-12-03T04:51:50.417Z,13.45
2022-12-03T04:54:36.415Z,15.10
2022-12-03T04:57:21.511Z,25.58
2022-12-03T05:00:07.569Z,22.10
2022-12-03T05:02:54.142Z,22.05
2022-12-03T05:05:39.847Z,19.58
2022-12-03T05:08:25.491Z,19.90
2022-12-03T05:11:10.714Z,16.63
2022-12-03T05:13:56.038Z,16.08
2022-12-03T05:16:41.484Z,16.45
2022-12-03T05:19:46.769Z,15.55
2022-12-03T05:22:31.842Z,14.10
2022-12-03T05:25:17.346Z,12.90
2022-12-03T05:28:02.942Z,12.38
2022-12-03T05:30:48.174Z,11.95
2022-12-03T05:33:33.657Z,12.05
2022-12-03T05:36:18.972Z,11.70
2022-12-03T05:39:04.526Z,12.93
2022-12-03T05:42:08.310Z,13.15
2022-12-03T05:44:53.784Z,11.88
2022-12-03T05:47:39.059Z,10.98
2022-12-03T05:50:27.798Z,10.77
2022-12-03T05:53:13.781Z,11.80
2022-12-03T05:55:58.990Z,11.30
2022-12-03T05:58:44.309Z,11.57
2022-12-03T06:01:29.745Z,10.93
2022-12-03T06:04:15.118Z,10.88
2022-12-03T06:07:00.527Z,12.82
2022-12-03T06:09:46.101Z,12.10
2022-12-03T06:12:31.414Z,12.27
2022-12-03T06:15:17.420Z,11.32
2022-12-03T06:18:02.793Z,10.75
2022-12-03T06:20:48.053Z,12.00
2022-12-03T06:23:33.318Z,11.38
2022-12-03T06:26:18.721Z,11.25
2022-12-03T06:29:04.104Z,11.23
2022-12-03T06:31:49.451Z,11.50
2022-12-03T06:34:34.940Z,12.77
2022-12-03T06:37:20.278Z,11.95
2022-12-03T06:40:06.509Z,12.27
2022-12-03T06:42:52.188Z,12.15
2022-12-03T06:45:37.280Z,11.05
2022-12-03T06:48:22.711Z,12.18
2022-12-03T06:51:07.974Z,11.40
2022-12-03T06:53:53.211Z,12.70
2022-12-03T06:56:44.943Z,11.18
2022-12-03T06:59:34.049Z,10.93
2022-12-03T07:02:19.491Z,11.32
2022-12-03T07:05:05.068Z,10.73
2022-12-03T07:07:52.191Z,10.23
2022-12-03T07:10:37.326Z,9.15
2022-12-03T07:13:22.617Z,9.00
2022-12-03T07:16:08.169Z,9.65
2022-12-03T07:18:53.538Z,10.68
2022-12-03T07:21:38.852Z,9.35
2022-12-03T07:24:24.207Z,9.27
2022-12-03T07:27:09.709Z,8.45
2022-12-03T07:29:55.125Z,9.95
2022-12-03T07:32:40.593Z,8.95
2022-12-03T07:35:26.138Z,8.68
2022-12-03T07:38:11.543Z,7.65
2022-12-03T07:40:56.934Z,9.85
2022-12-03T07:43:42.292Z,9.05
2022-12-03T07:46:27.865Z,8.35
2022-12-03T07:49:13.374Z,8.70
2022-12-03T07:51:58.433Z,9.43
2022-12-03T07:54:44.432Z,8.60
2022-12-03T07:57:29.794Z,9.27
2022-12-03T08:00:15.637Z,8.55
2022-12-03T08:03:00.992Z,9.48
2022-12-03T08:05:46.386Z,9.27
2022-12-03T08:08:32.236Z,9.85
2022-12-03T08:11:17.522Z,8.88
2022-12-03T08:14:14.664Z,7.70
2022-12-03T08:16:59.792Z,6.85
2022-12-03T08:19:46.996Z,6.53
2022-12-03T08:22:32.202Z,6.00
2022-12-03T08:25:24.802Z,6.97
2022-12-03T08:28:21.055Z,6.38
2022-12-03T08:31:19.464Z,6.68
2022-12-03T08:34:20.277Z,8.38
2022-12-03T08:37:17.651Z,6.50
2022-12-03T08:40:12.558Z,6.57
2022-12-03T08:42:57.936Z,6.03
2022-12-03T08:45:43.615Z,6.60
2022-12-03T08:48:33.864Z,5.22
2022-12-03T08:51:27.120Z,4.85
2022-12-03T08:54:19.354Z,5.03
2022-12-03T08:57:23.050Z,4.60
2022-12-03T09:00:34.616Z,4.57
2022-12-03T09:03:19.990Z,5.10
2022-12-03T09:06:05.661Z,5.55
2022-12-03T09:08:50.813Z,5.75
2022-12-03T09:11:35.989Z,6.10
2022-12-03T09:14:22.552Z,5.85
2022-12-03T09:17:07.954Z,5.10
2022-12-03T09:19:53.343Z,5.13
2022-12-03T09:22:38.602Z,4.55
2022-12-03T09:25:24.089Z,5.68
2022-12-03T09:28:09.518Z,5.40
2022-12-03T09:30:55.126Z,5.07
2022-12-03T09:33:40.912Z,6.45
2022-12-03T09:36:26.246Z,4.85
2022-12-03T09:39:12.324Z,5.55
2022-12-03T09:41:57.812Z,4.75
2022-12-03T09:44:43.771Z,5.28
2022-12-03T09:47:30.665Z,4.95
2022-12-03T09:50:22.216Z,4.70
2022-12-03T09:53:10.663Z,5.90
2022-12-03T09:55:59.425Z,4.70
2022-12-03T09:58:44.590Z,5.85
2022-12-03T10:01:31.030Z,4.38
2022-12-03T10:04:16.684Z,5.47
2022-12-03T10:07:02.104Z,5.18
2022-12-03T10:09:47.397Z,4.90
2022-12-03T10:12:32.830Z,5.15
2022-12-03T10:15:21.742Z,5.38
2022-12-03T10:18:19.974Z,5.10
2022-12-03T10:21:10.333Z,5.70
2022-12-03T10:24:17.877Z,5.32
2022-12-03T10:27:20.009Z,4.90
2022-12-03T10:30:19.643Z,5.32
2022-12-03T10:33:18.458Z,5.32
2022-12-03T10:36:20.360Z,5.00
2022-12-03T10:39:13.547Z,5.70
2022-12-03T10:42:15.345Z,5.40
2022-12-03T10:45:12.997Z,5.05
2022-12-03T10:48:11.558Z,5.28
2022-12-03T10:51:13.307Z,5.28
2022-12-03T10:53:58.869Z,5.10
2022-12-03T10:56:45.182Z,4.97
2022-12-03T10:59:33.364Z,5.82
2022-12-03T11:02:21.982Z,5.20
2022-12-03T11:05:07.688Z,5.28
2022-12-03T11:07:53.011Z,5.50
2022-12-03T11:10:38.531Z,5.18
2022-12-03T11:13:28.783Z,5.18
2022-12-03T11:16:34.364Z,5.53
2022-12-03T11:19:39.482Z,4.97
2022-12-03T11:22:28.853Z,5.35
2022-12-03T11:25:26.643Z,7.60
2022-12-03T11:28:14.737Z,8.20
2022-12-03T11:31:29.219Z,6.75
2022-12-03T11:34:20.755Z,6.22
2022-12-03T11:37:12.308Z,5.80
2022-12-03T11:40:17.510Z,7.13
2022-12-03T11:43:02.663Z,7.15
2022-12-03T11:45:48.233Z,6.85
2022-12-03T11:48:34.583Z,6.78
2022-12-03T11:51:25.706Z,6.65
2022-12-03T11:54:17.596Z,7.70
2022-12-03T11:57:03.555Z,7.25
2022-12-03T12:00:05.683Z,8.35
2022-12-03T12:02:55.229Z,8.70
2022-12-03T12:05:40.687Z,8.80
2022-12-03T12:08:25.929Z,6.95
2022-12-03T12:11:40.421Z,7.82
2022-12-03T12:14:26.724Z,7.72
2022-12-03T12:17:35.548Z,7.45
2022-12-03T12:20:27.763Z,7.95
2022-12-03T12:23:28.884Z,7.20
2022-12-03T12:26:14.264Z,8.52
2022-12-03T12:28:59.731Z,7.60
2022-12-03T12:31:48.265Z,8.75
2022-12-03T12:34:50.373Z,7.90
2022-12-03T12:37:47.166Z,7.40
2022-12-03T12:40:36.401Z,8.60
2022-12-03T12:43:30.758Z,8.15
2022-12-03T12:46:46.810Z,7.70
2022-12-03T12:49:23.410Z,7.38
2022-12-03T12:52:14.131Z,6.13
2022-12-03T12:55:04.744Z,8.35
2022-12-03T12:57:51.054Z,6.60
2022-12-03T13:00:36.418Z,6.90
2022-12-03T13:03:32.111Z,6.60
2022-12-03T13:06:17.764Z,5.57
2022-12-03T13:09:02.935Z,6.25
2022-12-03T13:11:58.461Z,6.50
2022-12-03T13:14:43.986Z,5.72
2022-12-03T13:17:29.476Z,5.93
2022-12-03T13:20:17.113Z,5.90
2022-12-03T13:23:02.763Z,5.97
2022-12-03T13:26:18.718Z,5.47
2022-12-03T13:28:57.686Z,5.68
2022-12-03T13:31:52.948Z,7.00
2022-12-03T13:34:37.870Z,4.95
2022-12-03T13:37:26.859Z,5.93
2022-12-03T13:40:30.671Z,5.50
2022-12-03T13:43:18.553Z,5.25
2022-12-03T13:46:04.158Z,5.70
2022-12-03T13:48:49.544Z,4.60
2022-12-03T13:51:35.531Z,4.72
2022-12-03T13:54:27.592Z,4.85
2022-12-03T13:57:13.093Z,5.28
2022-12-03T13:59:59.940Z,5.10
2022-12-03T14:02:47.003Z,5.50
2022-12-03T14:05:32.697Z,4.78
2022-12-03T14:08:18.100Z,4.93
2022-12-03T14:11:03.934Z,5.78
2022-12-03T14:13:49.256Z,4.57
2022-12-03T14:16:34.745Z,5.63
2022-12-03T14:19:20.325Z,5.00
2022-12-03T14:22:07.952Z,4.68
2022-12-03T14:24:54.135Z,4.78
2022-12-03T14:27:39.382Z,4.72
2022-12-03T14:30:24.745Z,4.40
2022-12-03T14:33:10.231Z,6.05
2022-12-03T14:35:56.251Z,6.00
2022-12-03T14:38:41.600Z,4.82
2022-12-03T14:41:45.469Z,5.57
2022-12-03T14:44:30.644Z,4.70
2022-12-03T14:47:19.295Z,4.70
2022-12-03T14:50:05.210Z,4.97
2022-12-03T14:52:50.305Z,4.90
2022-12-03T14:55:35.727Z,5.55
2022-12-03T14:58:21.185Z,5.07
2022-12-03T15:01:06.494Z,4.70
2022-12-03T15:03:51.899Z,5.95
2022-12-03T15:06:37.103Z,4.72
2022-12-03T15:09:22.584Z,5.53
2022-12-03T15:12:08.043Z,5.55
2022-12-03T15:14:53.695Z,5.68
2022-12-03T15:17:39.201Z,7.35
2022-12-03T15:20:24.645Z,6.70
2022-12-03T15:23:14.205Z,7.32
2022-12-03T15:26:00.304Z,7.15
2022-12-03T15:28:48.434Z,8.05
2022-12-03T15:31:34.197Z,7.05
2022-12-03T15:34:22.816Z,7.10
2022-12-03T15:37:09.148Z,8.10
2022-12-03T15:39:54.887Z,11.43
2022-12-03T15:42:40.519Z,10.75
2022-12-03T15:45:25.772Z,9.75
2022-12-03T15:48:11.167Z,8.10
2022-12-03T15:50:56.582Z,6.75
2022-12-03T15:53:42.572Z,7.50
2022-12-03T15:56:27.867Z,5.53
2022-12-03T15:59:13.346Z,5.47
2022-12-03T16:01:58.825Z,4.65
2022-12-03T16:04:44.747Z,5.00
2022-12-03T16:07:29.997Z,5.05
2022-12-03T16:10:17.510Z,5.55
2022-12-03T16:13:02.845Z,5.50
2022-12-03T16:15:48.366Z,4.78
2022-12-03T16:18:33.796Z,5.53
2022-12-03T16:21:23.498Z,5.90
2022-12-03T16:24:11.782Z,5.75
2022-12-03T16:26:57.361Z,5.20
2022-12-03T16:29:42.712Z,4.90
2022-12-03T16:32:28.130Z,5.80
2022-12-03T16:35:13.641Z,5.32
2022-12-03T16:37:59.002Z,5.63
2022-12-03T16:40:44.601Z,5.55
2022-12-03T16:43:30.166Z,4.65
2022-12-03T16:46:15.399Z,5.55
2022-12-03T16:49:00.783Z,5.25
2022-12-03T16:51:46.206Z,4.82
2022-12-03T16:54:31.982Z,5.13
2022-12-03T16:57:17.258Z,6.65
2022-12-03T17:00:03.534Z,5.53
2022-12-03T17:02:48.961Z,5.90
2022-12-03T17:05:34.640Z,5.15
2022-12-03T17:08:19.942Z,5.47
2022-12-03T17:11:05.584Z,5.88
2022-12-03T17:13:50.545Z,6.05
2022-12-03T17:16:36.017Z,5.13
2022-12-03T17:19:21.254Z,5.15
2022-12-03T17:22:06.721Z,5.35
2022-12-03T17:24:52.480Z,5.18
2022-12-03T17:27:44.625Z,5.22
2022-12-03T17:30:30.532Z,5.20
2022-12-03T17:33:15.845Z,5.68
2022-12-03T17:36:01.676Z,5.85
2022-12-03T17:38:47.059Z,7.07
2022-12-03T17:41:32.414Z,5.57
2022-12-03T17:44:20.928Z,6.65
2022-12-03T17:47:06.433Z,5.63
2022-12-03T17:49:52.300Z,6.07
2022-12-03T17:52:37.968Z,5.82
2022-12-03T17:55:33.612Z,4.68
2022-12-03T17:58:22.908Z,5.80
2022-12-03T18:01:11.441Z,5.15
2022-12-03T18:03:56.899Z,5.65
2022-12-03T18:06:42.334Z,5.43
2022-12-03T18:09:27.721Z,5.55
2022-12-03T18:12:13.202Z,5.60
2022-12-03T18:14:58.638Z,5.18
2022-12-03T18:17:43.937Z,5.22
2022-12-03T18:20:29.446Z,5.93
2022-12-03T18:23:14.963Z,5.75
2022-12-03T18:26:01.895Z,5.90
2022-12-03T18:28:47.367Z,5.53
2022-12-03T18:31:32.684Z,6.10
2022-12-03T18:34:18.104Z,6.63
2022-12-03T18:37:03.576Z,5.90
2022-12-03T18:39:48.946Z,6.72
2022-12-03T18:42:34.394Z,6.15
2022-12-03T18:45:19.678Z,6.47
2022-12-03T18:48:12.840Z,5.95
2022-12-03T18:53:43.675Z,6.82
2022-12-03T18:56:28.830Z,6.90
2022-12-03T18:59:14.456Z,6.45
2022-12-03T19:02:00.005Z,6.88
2022-12-03T19:04:45.551Z,6.55
2022-12-03T19:07:30.999Z,6.43
2022-12-03T19:10:16.309Z,6.70
2022-12-03T19:13:03.589Z,6.82
2022-12-03T19:15:49.150Z,5.93
2022-12-03T19:18:34.754Z,6.78
2022-12-03T19:21:20.287Z,6.88
2022-12-03T19:27:11.702Z,6.85
2022-12-03T19:29:58.061Z,6.82
2022-12-03T19:32:43.246Z,6.60
2022-12-03T19:35:28.534Z,6.60
2022-12-03T19:38:13.773Z,6.82
2022-12-03T19:41:00.310Z,6.22
2022-12-03T19:43:53.695Z,7.40
2022-12-03T19:46:39.070Z,7.53
2022-12-03T19:49:24.770Z,6.82
2022-12-03T19:52:10.063Z,6.40
2022-12-03T19:54:55.472Z,6.85
2022-12-03T19:57:40.665Z,7.00
2022-12-03T20:00:26.034Z,6.80
2022-12-03T20:03:11.448Z,7.15
2022-12-03T20:06:00.259Z,6.45
2022-12-03T20:08:45.979Z,6.85
2022-12-03T20:11:33.250Z,7.60
2022-12-03T20:14:18.858Z,6.40
2022-12-03T20:17:04.284Z,6.25
2022-12-03T20:19:49.698Z,7.40
2022-12-03T20:22:35.290Z,6.90
2022-12-03T20:25:20.541Z,7.57
2022-12-03T20:28:05.938Z,6.18
2022-12-03T20:31:09.579Z,5.72
2022-12-03T20:33:57.929Z,6.70
2022-12-03T20:36:44.156Z,6.32
2022-12-03T20:39:29.636Z,5.10
2022-12-03T20:42:15.044Z,6.05
2022-12-03T20:45:00.332Z,6.78
2022-12-03T20:47:45.667Z,6.20
2022-12-03T20:50:31.209Z,6.05
2022-12-03T20:53:24.758Z,6.72
2022-12-03T20:56:15.848Z,7.40
2022-12-03T20:59:06.636Z,7.15
2022-12-03T21:01:51.885Z,6.95
2022-12-03T21:04:37.158Z,6.95
2022-12-03T21:07:22.562Z,7.45
2022-12-03T21:10:28.526Z,7.65
2022-12-03T21:13:17.924Z,6.63
2022-12-03T21:16:08.929Z,7.22
2022-12-03T21:18:54.930Z,6.70
2022-12-03T21:21:40.054Z,6.68
2022-12-03T21:24:25.555Z,6.65
2022-12-03T21:27:11.051Z,7.18
2022-12-03T21:29:56.774Z,6.35
2022-12-03T21:32:42.239Z,7.00
2022-12-03T21:35:27.621Z,6.65
2022-12-03T21:38:12.987Z,7.53
2022-12-03T21:40:58.932Z,6.63
2022-12-03T21:43:44.703Z,6.90
2022-12-03T21:47:11.700Z,7.40
2022-12-03T21:49:37.647Z,8.15
2022-12-03T21:52:22.808Z,7.95
2022-12-03T21:55:08.638Z,6.93
2022-12-03T21:57:54.123Z,7.90
2022-12-03T22:00:39.433Z,6.97
2022-12-03T22:03:25.080Z,6.78
2022-12-03T22:06:11.258Z,6.30
2022-12-03T22:08:56.278Z,5.82
2022-12-03T22:11:41.770Z,5.78
2022-12-03T22:14:27.911Z,7.07
2022-12-03T22:17:13.008Z,6.32
2022-12-03T22:19:58.290Z,5.60
2022-12-03T22:22:43.848Z,5.47
2022-12-03T22:25:30.428Z,5.43
2022-12-03T22:28:15.670Z,5.88
2022-12-03T22:31:06.420Z,6.32
2022-12-03T22:33:51.803Z,5.13
2022-12-03T22:36:37.677Z,5.18
2022-12-03T22:39:23.087Z,6.00
2022-12-03T22:42:08.530Z,7.35
2022-12-03T22:44:53.902Z,7.75
2022-12-03T22:47:39.337Z,8.82
2022-12-03T22:50:24.650Z,6.85
2022-12-03T22:53:10.410Z,7.22
2022-12-03T22:56:00.783Z,5.93
2022-12-03T22:58:46.129Z,6.03
2022-12-03T23:01:39.654Z,6.32
2022-12-03T23:04:24.726Z,7.13
2022-12-03T23:07:10.336Z,6.90
2022-12-03T23:09:55.991Z,6.57
2022-12-03T23:12:41.556Z,5.97
2022-12-03T23:15:26.958Z,6.22
2022-12-03T23:18:12.515Z,5.72
2022-12-03T23:20:57.877Z,5.05
2022-12-03T23:23:43.245Z,5.93
2022-12-03T23:26:29.164Z,8.38
2022-12-03T23:29:14.316Z,8.55
2022-12-03T23:31:59.706Z,9.07
2022-12-03T23:34:45.090Z,6.80
2022-12-03T23:37:30.926Z,6.55
2022-12-03T23:40:16.144Z,6.82
2022-12-03T23:43:01.511Z,6.68
2022-12-03T23:45:46.957Z,4.82
2022-12-03T23:48:32.781Z,5.78
2022-12-03T23:51:21.305Z,5.32
2022-12-03T23:54:06.578Z,7.00
2022-12-03T23:56:52.029Z,6.43
2022-12-03T23:59:39.079Z,7.57
